Time;durP1;ratioP1;P1;durP2;ratioP2;P2;SDS_P1;SDS_P2;PMS_P1;PMS_P2;Temp;Humidity;BMP_temperature;BMP_pressure;BME280_temperature;BME280_humidity;BME280_pressure;Samples;Min_cycle;Max_cycle;Signal;HPM_P1;HPM_P2
2021/12/17 00:00:33;;;;;;;9.23;6.00;;;;;;;;;;5054281;28;20177;-79
2021/12/17 00:08:10;;;;;;;7.27;5.40;;;;;;;;;;5072664;28;20184;-79
2021/12/17 00:10:36;;;;;;;7.93;5.50;;;;;;;;;;5054584;28;20199;-79
2021/12/17 00:13:02;;;;;;;7.83;5.17;;;;;;;;;;5054335;28;20200;-79
2021/12/17 00:15:28;;;;;;;6.10;5.20;;;;;;;;;;5054502;28;20241;-78
2021/12/17 00:18:00;;;;;;;8.83;5.40;;;;;;;;;;5054565;28;20188;-79
2021/12/17 00:48:35;;;;;;;11.73;7.90;;;;;;;;;;5076374;28;20258;-79
2021/12/17 00:53:17;;;;;;;12.50;8.23;;;;;;;;;;5075430;28;20192;-79
2021/12/17 00:55:43;;;;;;;9.87;7.43;;;;;;;;;;5041782;28;20172;-79
2021/12/17 00:58:09;;;;;;;10.47;8.13;;;;;;;;;;5057613;28;20188;-79
2021/12/17 01:00:35;;;;;;;11.77;8.40;;;;;;;;;;5057416;28;20183;-79
2021/12/17 01:03:01;;;;;;;10.93;7.93;;;;;;;;;;5075719;28;20189;-79
2021/12/17 01:05:29;;;;;;;13.00;7.77;;;;;;;;;;5057365;28;20211;-79
2021/12/17 01:07:56;;;;;;;11.07;8.27;;;;;;;;;;5040724;28;20181;-79
2021/12/17 01:10:26;;;;;;;11.07;7.93;;;;;;;;;;5057405;28;20183;-79
2021/12/17 01:12:52;;;;;;;10.80;7.87;;;;;;;;;;5057041;28;20198;-79
2021/12/17 01:15:19;;;;;;;10.07;7.87;;;;;;;;;;5040913;28;20278;-79
2021/12/17 01:17:47;;;;;;;10.73;7.80;;;;;;;;;;5056984;28;20668;-79
2021/12/17 01:20:26;;;;;;;10.47;7.77;;;;;;;;;;5057478;28;20207;-79
2021/12/17 01:25:50;;;;;;;8.80;7.30;;;;;;;;;;5075061;28;20208;-79
2021/12/17 01:36:30;;;;;;;11.47;8.23;;;;;;;;;;5059937;28;20554;-79
2021/12/17 01:44:14;;;;;;;10.70;8.33;;;;;;;;;;5074680;28;20334;-79
2021/12/17 01:46:40;;;;;;;10.20;7.70;;;;;;;;;;5056779;28;20195;-79
2021/12/17 01:59:53;;;;;;;8.50;6.60;;;;;;;;;;5074426;28;20208;-78
2021/12/17 02:02:19;;;;;;;9.00;7.07;;;;;;;;;;5039562;28;20279;-79
2021/12/17 02:04:45;;;;;;;9.87;6.70;;;;;;;;;;5056326;28;20682;-78
2021/12/17 02:07:12;;;;;;;9.23;7.00;;;;;;;;;;5039865;28;20179;-79
2021/12/17 02:10:26;;;;;;;8.30;6.40;;;;;;;;;;5056427;28;20165;-79
2021/12/17 02:28:49;;;;;;;9.07;6.90;;;;;;;;;;5073991;28;20178;-79
2021/12/17 02:31:30;;;;;;;8.77;6.33;;;;;;;;;;5055511;28;20716;-78
2021/12/17 02:34:00;;;;;;;9.07;6.70;;;;;;;;;;5055681;28;20230;-79
2021/12/17 02:36:30;;;;;;;9.20;6.57;;;;;;;;;;5055635;28;20188;-79
2021/12/17 02:47:20;;;;;;;10.07;6.93;;;;;;;;;;5073743;28;20179;-79
2021/12/17 02:49:47;;;;;;;9.60;6.73;;;;;;;;;;5055187;28;20175;-79
2021/12/17 02:52:15;;;;;;;10.50;6.83;;;;;;;;;;5073032;28;20222;-79
2021/12/17 02:54:41;;;;;;;9.30;6.83;;;;;;;;;;5055463;28;20187;-78
2021/12/17 02:57:09;;;;;;;8.20;6.00;;;;;;;;;;5055529;28;20214;-79
2021/12/17 02:59:36;;;;;;;8.60;6.20;;;;;;;;;;5038557;28;20195;-79
2021/12/17 03:02:03;;;;;;;10.33;6.50;;;;;;;;;;5055125;28;20176;-79
2021/12/17 03:04:30;;;;;;;9.77;6.53;;;;;;;;;;5038794;28;20238;-79
2021/12/17 03:06:57;;;;;;;9.40;6.23;;;;;;;;;;5038701;28;20280;-78
2021/12/17 03:09:38;;;;;;;10.23;7.30;;;;;;;;;;5039011;28;20183;-79
2021/12/17 03:12:09;;;;;;;9.33;6.70;;;;;;;;;;5054843;28;20180;-79
2021/12/17 03:14:46;;;;;;;10.37;6.60;;;;;;;;;;5038733;28;20214;-79
2021/12/17 03:17:19;;;;;;;11.23;6.67;;;;;;;;;;5040024;28;20186;-79
2021/12/17 03:25:05;;;;;;;8.47;6.20;;;;;;;;;;5058031;28;20317;-79
2021/12/17 03:27:31;;;;;;;9.07;6.77;;;;;;;;;;5054643;28;20601;-78
2021/12/17 03:29:57;;;;;;;10.43;7.30;;;;;;;;;;5038350;28;20674;-78
2021/12/17 03:32:23;;;;;;;9.20;7.10;;;;;;;;;;5037959;28;20184;-79
2021/12/17 03:34:50;;;;;;;9.20;6.67;;;;;;;;;;5038704;28;20196;-79
2021/12/17 03:37:16;;;;;;;10.63;7.10;;;;;;;;;;5054738;28;20176;-78
2021/12/17 03:39:44;;;;;;;9.17;7.07;;;;;;;;;;5054926;28;20190;-79
2021/12/17 03:42:10;;;;;;;9.23;6.17;;;;;;;;;;5038244;28;20196;-78
2021/12/17 03:44:36;;;;;;;9.20;7.50;;;;;;;;;;5054804;28;20209;-78
2021/12/17 03:47:04;;;;;;;9.50;6.93;;;;;;;;;;5038102;28;20183;-79
2021/12/17 03:49:30;;;;;;;8.70;6.63;;;;;;;;;;5072651;28;20239;-79
2021/12/17 03:52:05;;;;;;;10.20;7.17;;;;;;;;;;5038317;28;20186;-79
2021/12/17 03:54:35;;;;;;;11.13;7.77;;;;;;;;;;5054884;28;20258;-78
2021/12/17 03:57:02;;;;;;;10.53;7.53;;;;;;;;;;5054778;28;20179;-79
2021/12/17 03:59:28;;;;;;;10.33;7.33;;;;;;;;;;5038122;28;20190;-79
2021/12/17 04:01:54;;;;;;;11.30;7.67;;;;;;;;;;5054655;28;20211;-79
2021/12/17 04:04:20;;;;;;;9.80;7.50;;;;;;;;;;5037998;28;20240;-79
2021/12/17 04:06:46;;;;;;;9.10;7.37;;;;;;;;;;5072576;28;20168;-78
2021/12/17 04:09:13;;;;;;;9.30;6.60;;;;;;;;;;5054398;28;20172;-79
2021/12/17 04:11:39;;;;;;;10.03;7.23;;;;;;;;;;5039379;28;20270;-79
2021/12/17 04:14:05;;;;;;;9.97;7.13;;;;;;;;;;5058456;28;20200;-78
2021/12/17 04:16:33;;;;;;;11.83;8.03;;;;;;;;;;5058578;28;20185;-79
2021/12/17 04:18:59;;;;;;;11.40;7.60;;;;;;;;;;5042263;28;20205;-79
2021/12/17 04:21:26;;;;;;;9.87;6.60;;;;;;;;;;5041553;28;20189;-79
2021/12/17 04:23:54;;;;;;;10.07;7.63;;;;;;;;;;5058184;28;20210;-79
2021/12/17 04:26:21;;;;;;;9.60;7.00;;;;;;;;;;5058181;28;20180;-79
2021/12/17 04:28:50;;;;;;;9.20;6.83;;;;;;;;;;5058068;28;20197;-79
2021/12/17 04:31:17;;;;;;;8.23;6.40;;;;;;;;;;5041993;28;20180;-79
2021/12/17 04:33:43;;;;;;;10.33;7.27;;;;;;;;;;5041438;28;20277;-79
2021/12/17 04:36:11;;;;;;;8.60;6.60;;;;;;;;;;5058049;28;20550;-79
2021/12/17 04:38:37;;;;;;;9.77;6.43;;;;;;;;;;5075923;28;20251;-79
2021/12/17 04:46:43;;;;;;;9.17;7.33;;;;;;;;;;5075963;28;20237;-79
2021/12/17 04:57:35;;;;;;;9.90;7.97;;;;;;;;;;5075777;28;20199;-79
2021/12/17 05:00:07;;;;;;;9.50;7.13;;;;;;;;;;5075393;28;20196;-79
2021/12/17 05:02:38;;;;;;;9.33;7.53;;;;;;;;;;5057897;28;20200;-78
2021/12/17 05:05:07;;;;;;;8.87;6.50;;;;;;;;;;5041268;28;20215;-79
2021/12/17 05:07:35;;;;;;;8.80;6.70;;;;;;;;;;5041596;28;20209;-79
2021/12/17 05:10:12;;;;;;;6.10;5.43;;;;;;;;;;5040732;28;20181;-79
2021/12/17 05:18:17;;;;;;;8.57;6.67;;;;;;;;;;5075234;28;20194;-78
2021/12/17 05:20:49;;;;;;;7.93;6.43;;;;;;;;;;5057239;28;20180;-78
2021/12/17 05:23:23;;;;;;;9.57;6.93;;;;;;;;;;5056129;28;20287;-79
2021/12/17 05:25:49;;;;;;;7.53;6.53;;;;;;;;;;5075002;28;20648;-78
2021/12/17 05:28:15;;;;;;;8.23;6.50;;;;;;;;;;5056925;28;20641;-79
2021/12/17 05:30:46;;;;;;;7.77;6.47;;;;;;;;;;5040194;28;20274;-79
2021/12/17 05:33:13;;;;;;;8.63;6.63;;;;;;;;;;5064410;22;20227;-78
2021/12/17 05:35:39;;;;;;;8.10;6.47;;;;;;;;;;5036769;28;20180;-78
2021/12/17 05:38:05;;;;;;;7.23;6.10;;;;;;;;;;5036173;28;20211;-76
2021/12/17 05:40:31;;;;;;;6.83;5.83;;;;;;;;;;5052626;28;20195;-76
2021/12/17 05:43:00;;;;;;;7.67;5.90;;;;;;;;;;5031884;28;20197;-76
2021/12/17 05:47:58;;;;;;;5.77;5.17;;;;;;;;;;5034038;28;20253;-77
2021/12/17 05:50:24;;;;;;;5.23;4.73;;;;;;;;;;5033744;28;20166;-76
2021/12/17 05:52:50;;;;;;;5.17;4.67;;;;;;;;;;5049008;28;20193;-76
2021/12/17 05:55:16;;;;;;;5.10;4.37;;;;;;;;;;5032448;28;20186;-76
2021/12/17 05:57:42;;;;;;;5.27;4.10;;;;;;;;;;5048984;28;20272;-76
2021/12/17 06:00:09;;;;;;;4.90;4.40;;;;;;;;;;5032452;28;20216;-76
2021/12/17 06:02:35;;;;;;;5.57;4.90;;;;;;;;;;5032215;28;20219;-76
2021/12/17 06:05:01;;;;;;;5.67;4.47;;;;;;;;;;5049053;28;20203;-76
2021/12/17 06:07:28;;;;;;;5.03;4.53;;;;;;;;;;5032329;28;20176;-76
2021/12/17 06:09:54;;;;;;;4.80;4.30;;;;;;;;;;5032757;28;20185;-79
2021/12/17 06:12:20;;;;;;;6.07;4.90;;;;;;;;;;5032853;28;20655;-80
2021/12/17 06:14:46;;;;;;;6.43;5.10;;;;;;;;;;5032539;28;20223;-79
2021/12/17 06:17:12;;;;;;;6.37;5.27;;;;;;;;;;5032417;28;20273;-79
2021/12/17 06:19:38;;;;;;;6.50;5.37;;;;;;;;;;5032472;28;20229;-79
2021/12/17 06:22:04;;;;;;;6.80;4.70;;;;;;;;;;5032259;28;20172;-79
2021/12/17 06:24:30;;;;;;;5.90;5.10;;;;;;;;;;5032575;28;20250;-79
2021/12/17 06:26:56;;;;;;;5.33;4.77;;;;;;;;;;5032542;28;20213;-81
2021/12/17 06:29:22;;;;;;;6.70;5.40;;;;;;;;;;5032822;28;20713;-80
2021/12/17 06:31:48;;;;;;;6.83;5.07;;;;;;;;;;5032445;28;20179;-79
2021/12/17 06:34:14;;;;;;;9.23;5.90;;;;;;;;;;5048910;28;20219;-81
2021/12/17 06:36:40;;;;;;;7.37;5.30;;;;;;;;;;5033018;28;20188;-81
2021/12/17 06:39:06;;;;;;;6.47;5.13;;;;;;;;;;5048973;28;20184;-79
2021/12/17 06:41:32;;;;;;;7.07;5.60;;;;;;;;;;5048061;28;20181;-79
2021/12/17 06:44:00;;;;;;;6.43;5.67;;;;;;;;;;5048571;28;20213;-78
2021/12/17 06:46:36;;;;;;;7.17;5.50;;;;;;;;;;5048887;28;20178;-79
2021/12/17 07:00:14;;;;;;;9.63;7.30;;;;;;;;;;5031618;28;20181;-79
2021/12/17 07:10:46;;;;;;;9.23;7.20;;;;;;;;;;5032360;28;20277;-78
2021/12/17 07:39:58;;;;;;;17.93;12.80;;;;;;;;;;5014256;28;20282;-77
2021/12/17 07:42:25;;;;;;;14.43;10.30;;;;;;;;;;5031895;28;20179;-77
2021/12/17 07:44:51;;;;;;;12.83;9.30;;;;;;;;;;5047175;28;20262;-77
2021/12/17 07:47:17;;;;;;;12.80;8.80;;;;;;;;;;5033488;28;20597;-77
2021/12/17 07:49:43;;;;;;;12.63;9.53;;;;;;;;;;5051334;28;20180;-77
2021/12/17 07:52:09;;;;;;;14.60;9.90;;;;;;;;;;5034512;28;20181;-77
2021/12/17 07:54:35;;;;;;;13.20;9.53;;;;;;;;;;5034654;28;20236;-77
2021/12/17 07:57:01;;;;;;;13.63;9.53;;;;;;;;;;5035901;28;20299;-77
2021/12/17 07:59:27;;;;;;;13.47;9.70;;;;;;;;;;5051407;28;20184;-77
2021/12/17 08:01:53;;;;;;;12.67;9.37;;;;;;;;;;5034516;28;20222;-78
2021/12/17 08:04:19;;;;;;;14.23;10.13;;;;;;;;;;5051000;28;20754;-78
2021/12/17 08:06:45;;;;;;;13.93;9.67;;;;;;;;;;5034537;28;20186;-78
2021/12/17 08:09:11;;;;;;;14.17;9.43;;;;;;;;;;5034443;28;20321;-78
2021/12/17 08:11:39;;;;;;;13.80;9.73;;;;;;;;;;5034327;28;20188;-77
2021/12/17 08:14:13;;;;;;;13.47;9.67;;;;;;;;;;5034587;28;20286;-78
2021/12/17 08:17:00;;;;;;;13.33;9.40;;;;;;;;;;5051021;28;20677;-77
2021/12/17 08:30:39;;;;;;;11.93;8.30;;;;;;;;;;5035220;28;20261;-77
2021/12/17 08:32:44;;;;;;;10.90;7.67;;;;;;;;;;5026698;28;20185;-77
2021/12/17 08:35:11;;;;;;;10.43;6.63;;;;;;;;;;5050721;28;20246;-77
2021/12/17 08:37:37;;;;;;;12.63;7.97;;;;;;;;;;5035181;28;20179;-77
2021/12/17 08:40:04;;;;;;;14.23;7.40;;;;;;;;;;5050588;28;20274;-77
2021/12/17 08:42:30;;;;;;;12.00;7.40;;;;;;;;;;5050036;28;20688;-77
2021/12/17 08:44:56;;;;;;;11.63;8.00;;;;;;;;;;5033851;28;20216;-77
2021/12/17 08:47:22;;;;;;;13.50;7.33;;;;;;;;;;5050557;28;20228;-77
2021/12/17 08:49:50;;;;;;;13.83;7.40;;;;;;;;;;5050203;28;20175;-79
2021/12/17 08:52:16;;;;;;;14.60;7.70;;;;;;;;;;5033694;28;20236;-78
2021/12/17 08:54:42;;;;;;;12.73;7.50;;;;;;;;;;5033612;28;20210;-78
2021/12/17 08:57:09;;;;;;;12.50;7.50;;;;;;;;;;5049751;28;20192;-78
2021/12/17 08:59:36;;;;;;;11.47;7.37;;;;;;;;;;5033842;28;20550;-78
2021/12/17 09:02:02;;;;;;;14.80;8.10;;;;;;;;;;5033571;28;20562;-78
2021/12/17 09:04:29;;;;;;;12.93;7.77;;;;;;;;;;5050083;28;20215;-78
2021/12/17 09:06:56;;;;;;;14.00;8.13;;;;;;;;;;5033738;28;20186;-78
2021/12/17 09:09:22;;;;;;;15.17;8.43;;;;;;;;;;5050136;28;20204;-77
2021/12/17 09:11:49;;;;;;;39.03;25.53;;;;;;;;;;5049726;28;20180;-77
2021/12/17 09:14:19;;;;;;;15.47;8.80;;;;;;;;;;5033353;28;20212;-77
2021/12/17 09:16:45;;;;;;;15.77;8.60;;;;;;;;;;5034123;28;20192;-77
2021/12/17 09:19:11;;;;;;;20.13;12.33;;;;;;;;;;5033302;28;20183;-78
2021/12/17 09:21:37;;;;;;;16.00;9.17;;;;;;;;;;5033039;28;20185;-78
2021/12/17 09:24:03;;;;;;;14.50;8.30;;;;;;;;;;5033044;28;20596;-78
2021/12/17 09:26:33;;;;;;;16.67;8.33;;;;;;;;;;5049774;28;20266;-77
2021/12/17 09:28:59;;;;;;;16.97;8.50;;;;;;;;;;5049767;28;20173;-77
2021/12/17 09:31:25;;;;;;;11.93;7.97;;;;;;;;;;5049454;28;20261;-78
2021/12/17 09:33:52;;;;;;;14.03;7.67;;;;;;;;;;5049555;28;20721;-77
2021/12/17 09:36:18;;;;;;;17.00;9.77;;;;;;;;;;5049541;28;20178;-77
2021/12/17 09:38:49;;;;;;;13.20;7.87;;;;;;;;;;5032852;28;20234;-77
2021/12/17 09:41:15;;;;;;;15.30;8.20;;;;;;;;;;5033754;28;20184;-78
2021/12/17 09:43:41;;;;;;;14.60;7.70;;;;;;;;;;5049236;28;20198;-78
2021/12/17 09:46:08;;;;;;;14.40;8.40;;;;;;;;;;5033116;28;20186;-78
2021/12/17 09:48:35;;;;;;;13.23;7.50;;;;;;;;;;5049101;28;20181;-78
2021/12/17 09:51:03;;;;;;;13.13;7.97;;;;;;;;;;5048969;28;20177;-78
2021/12/17 09:53:29;;;;;;;14.70;8.53;;;;;;;;;;5032775;28;20202;-78
2021/12/17 09:55:56;;;;;;;12.07;7.50;;;;;;;;;;5049041;28;20273;-78
2021/12/17 09:58:22;;;;;;;15.07;8.50;;;;;;;;;;5032781;28;20671;-78
2021/12/17 10:00:48;;;;;;;14.90;9.17;;;;;;;;;;5049071;28;20181;-79
2021/12/17 10:03:14;;;;;;;15.47;9.57;;;;;;;;;;5048931;28;20208;-78
2021/12/17 10:05:40;;;;;;;13.50;8.00;;;;;;;;;;5032167;28;20714;-78
2021/12/17 10:08:14;;;;;;;14.07;7.80;;;;;;;;;;5049106;28;20170;-78
2021/12/17 10:10:42;;;;;;;13.03;7.93;;;;;;;;;;5047898;28;20185;-78
2021/12/17 10:13:13;;;;;;;14.17;7.53;;;;;;;;;;5048651;28;20197;-78
2021/12/17 10:15:41;;;;;;;13.23;7.43;;;;;;;;;;5032306;28;20284;-78
2021/12/17 10:18:07;;;;;;;13.63;7.30;;;;;;;;;;5048777;28;20182;-78
2021/12/17 10:20:35;;;;;;;12.97;7.40;;;;;;;;;;5048775;28;20189;-78
2021/12/17 10:23:04;;;;;;;13.73;7.80;;;;;;;;;;5031885;28;20209;-78
2021/12/17 10:25:31;;;;;;;14.43;7.70;;;;;;;;;;5032225;28;20262;-78
2021/12/17 10:27:59;;;;;;;14.90;8.17;;;;;;;;;;5048387;28;20558;-78
2021/12/17 10:30:26;;;;;;;16.83;8.50;;;;;;;;;;5031906;28;20239;-78
2021/12/17 10:32:54;;;;;;;14.47;7.97;;;;;;;;;;5048417;28;20728;-78
2021/12/17 10:35:24;;;;;;;14.80;7.77;;;;;;;;;;5032100;28;20206;-78
2021/12/17 10:38:00;;;;;;;14.17;8.60;;;;;;;;;;5032062;28;20193;-78
2021/12/17 10:40:26;;;;;;;12.97;7.70;;;;;;;;;;5048065;28;20177;-78
2021/12/17 10:43:02;;;;;;;14.33;7.90;;;;;;;;;;5048128;28;20205;-78
2021/12/17 10:45:31;;;;;;;13.80;8.27;;;;;;;;;;5032431;28;20212;-78
2021/12/17 10:48:03;;;;;;;13.47;7.33;;;;;;;;;;5048274;28;20205;-78
2021/12/17 10:50:29;;;;;;;13.50;7.47;;;;;;;;;;5048011;28;20174;-78
2021/12/17 10:52:56;;;;;;;16.20;9.60;;;;;;;;;;5047761;28;20193;-78
2021/12/17 10:55:23;;;;;;;14.30;8.23;;;;;;;;;;5047923;28;20687;-78
2021/12/17 10:57:50;;;;;;;13.20;7.50;;;;;;;;;;5031348;28;20182;-78
2021/12/17 11:00:17;;;;;;;13.43;7.80;;;;;;;;;;5031848;28;20206;-78
2021/12/17 11:02:53;;;;;;;13.17;8.10;;;;;;;;;;5047822;28;20576;-78
2021/12/17 11:05:20;;;;;;;13.90;7.33;;;;;;;;;;5031266;28;20206;-78
2021/12/17 11:07:50;;;;;;;15.80;8.10;;;;;;;;;;5031426;28;20174;-78
2021/12/17 11:10:17;;;;;;;14.67;7.30;;;;;;;;;;5047791;28;20243;-78
2021/12/17 11:12:45;;;;;;;14.30;8.23;;;;;;;;;;5047515;28;20191;-78
2021/12/17 11:15:22;;;;;;;15.17;7.53;;;;;;;;;;5047860;28;20178;-78
2021/12/17 11:17:48;;;;;;;13.67;7.57;;;;;;;;;;5048243;28;20181;-79
2021/12/17 11:20:35;;;;;;;12.03;7.37;;;;;;;;;;5048835;28;20552;-80
2021/12/17 11:23:05;;;;;;;14.07;7.73;;;;;;;;;;5047986;28;20206;-82
2021/12/17 11:25:31;;;;;;;13.47;7.70;;;;;;;;;;5048255;28;20212;-81
2021/12/17 11:27:57;;;;;;;14.73;8.10;;;;;;;;;;5031975;28;20266;-79
2021/12/17 11:30:24;;;;;;;14.00;7.60;;;;;;;;;;5047576;28;20166;-78
2021/12/17 11:32:52;;;;;;;13.30;7.70;;;;;;;;;;5032067;28;20198;-79
2021/12/17 11:35:20;;;;;;;13.67;7.97;;;;;;;;;;5047985;28;20555;-81
2021/12/17 11:37:47;;;;;;;15.00;8.60;;;;;;;;;;5048497;28;20206;-80
2021/12/17 11:40:18;;;;;;;76.93;19.27;;;;;;;;;;5031652;28;20178;-79
2021/12/17 11:42:53;;;;;;;12.80;7.50;;;;;;;;;;5047934;28;20185;-82
2021/12/17 11:45:25;;;;;;;14.57;7.63;;;;;;;;;;5048028;28;20208;-78
2021/12/17 11:47:51;;;;;;;13.83;7.73;;;;;;;;;;5047674;28;20174;-80
2021/12/17 11:50:18;;;;;;;15.03;9.03;;;;;;;;;;5031675;28;20271;-81
2021/12/17 11:52:45;;;;;;;24.00;17.23;;;;;;;;;;5031355;28;20190;-77
2021/12/17 11:55:23;;;;;;;16.70;10.17;;;;;;;;;;5047704;28;20198;-78
2021/12/17 11:57:50;;;;;;;13.90;7.70;;;;;;;;;;5047445;28;20174;-77
2021/12/17 12:00:18;;;;;;;15.17;7.93;;;;;;;;;;5047322;28;20181;-79
2021/12/17 12:02:48;;;;;;;14.53;8.80;;;;;;;;;;5047194;28;20196;-79
2021/12/17 12:05:33;;;;;;;15.13;8.17;;;;;;;;;;5047212;28;20695;-78
2021/12/17 12:08:18;;;;;;;13.00;7.87;;;;;;;;;;5047927;28;20163;-80
2021/12/17 12:11:02;;;;;;;13.37;7.73;;;;;;;;;;5047402;28;20167;-79
2021/12/17 12:13:40;;;;;;;12.57;7.57;;;;;;;;;;5047711;28;20187;-79
2021/12/17 12:16:07;;;;;;;13.93;7.97;;;;;;;;;;5047482;28;20587;-80
2021/12/17 12:18:59;;;;;;;14.33;7.90;;;;;;;;;;5047625;28;20258;-80
2021/12/17 12:21:26;;;;;;;14.77;7.73;;;;;;;;;;5044143;28;20179;-79
2021/12/17 12:23:57;;;;;;;11.37;6.87;;;;;;;;;;5030554;28;20200;-78
2021/12/17 12:26:41;;;;;;;13.43;7.47;;;;;;;;;;5047106;28;20175;-80
2021/12/17 12:29:09;;;;;;;13.03;7.53;;;;;;;;;;5030773;28;20175;-78
2021/12/17 12:31:38;;;;;;;15.93;7.73;;;;;;;;;;5046514;28;20256;-79
2021/12/17 12:34:07;;;;;;;29.27;11.63;;;;;;;;;;5048234;28;20215;-77
2021/12/17 12:36:52;;;;;;;29.50;10.57;;;;;;;;;;5034037;28;20175;-77
2021/12/17 12:39:18;;;;;;;16.73;7.77;;;;;;;;;;5033999;28;20175;-80
2021/12/17 12:41:45;;;;;;;13.63;7.10;;;;;;;;;;5034305;28;20258;-81
2021/12/17 12:44:11;;;;;;;11.13;7.00;;;;;;;;;;5034338;28;20605;-80
2021/12/17 12:46:49;;;;;;;12.87;7.37;;;;;;;;;;5034833;28;20190;-80
2021/12/17 12:49:34;;;;;;;12.80;7.30;;;;;;;;;;5034416;28;20182;-81
2021/12/17 12:52:19;;;;;;;11.27;6.67;;;;;;;;;;5034296;28;20181;-80
2021/12/17 12:54:49;;;;;;;14.33;7.63;;;;;;;;;;5034138;28;20199;-81
2021/12/17 12:57:23;;;;;;;13.13;7.33;;;;;;;;;;5034663;28;20178;-81
2021/12/17 12:59:51;;;;;;;15.03;7.80;;;;;;;;;;5034436;28;20190;-80
2021/12/17 13:02:17;;;;;;;13.33;6.97;;;;;;;;;;5034219;28;20272;-80
2021/12/17 13:04:43;;;;;;;13.43;7.33;;;;;;;;;;5034186;28;20242;-80
2021/12/17 13:07:10;;;;;;;13.37;8.03;;;;;;;;;;5034425;28;20272;-80
2021/12/17 13:09:42;;;;;;;14.70;7.80;;;;;;;;;;5034386;28;20176;-81
2021/12/17 13:12:08;;;;;;;15.27;7.70;;;;;;;;;;5034149;28;20198;-80
2021/12/17 13:14:41;;;;;;;12.90;7.50;;;;;;;;;;5034019;28;20206;-80
2021/12/17 13:17:41;;;;;;;13.30;7.97;;;;;;;;;;5033815;28;20171;-81
2021/12/17 13:20:40;;;;;;;14.00;7.50;;;;;;;;;;5034627;28;20187;-81
2021/12/17 13:22:57;;;;;;;16.27;8.73;;;;;;;;;;5035200;28;20194;-80
2021/12/17 13:25:27;;;;;;;15.20;7.63;;;;;;;;;;5034842;28;20298;-81
2021/12/17 13:27:54;;;;;;;14.07;7.27;;;;;;;;;;5033864;28;20240;-80
2021/12/17 13:30:27;;;;;;;13.20;7.10;;;;;;;;;;5033995;28;20171;-82
2021/12/17 13:32:54;;;;;;;18.07;8.00;;;;;;;;;;5033905;28;20201;-82
2021/12/17 13:35:21;;;;;;;14.63;7.10;;;;;;;;;;5034247;28;20274;-81
2021/12/17 13:37:52;;;;;;;14.20;7.37;;;;;;;;;;5034036;28;20780;-81
2021/12/17 13:40:20;;;;;;;14.67;7.53;;;;;;;;;;5033591;28;20180;-80
2021/12/17 13:42:46;;;;;;;15.67;8.43;;;;;;;;;;5033768;28;20183;-81
2021/12/17 13:45:14;;;;;;;18.60;9.47;;;;;;;;;;5033372;28;20211;-80
2021/12/17 13:47:40;;;;;;;13.07;7.47;;;;;;;;;;5033787;28;20546;-81
2021/12/17 13:50:32;;;;;;;13.57;7.43;;;;;;;;;;5033462;28;20172;-81
2021/12/17 13:52:58;;;;;;;14.97;8.20;;;;;;;;;;5031199;28;20684;-81
2021/12/17 13:55:27;;;;;;;15.20;8.30;;;;;;;;;;5033552;28;20232;-81
2021/12/17 13:57:54;;;;;;;15.83;8.23;;;;;;;;;;5033207;28;20179;-80
2021/12/17 14:00:21;;;;;;;12.70;7.30;;;;;;;;;;5033087;28;20183;-81
2021/12/17 14:02:48;;;;;;;16.60;7.27;;;;;;;;;;5033184;28;20179;-81
2021/12/17 14:05:14;;;;;;;13.80;7.40;;;;;;;;;;5033221;28;20295;-81
2021/12/17 14:07:41;;;;;;;11.87;6.90;;;;;;;;;;5033187;28;20210;-80
2021/12/17 14:10:11;;;;;;;11.20;6.40;;;;;;;;;;5033360;28;20275;-81
2021/12/17 14:12:39;;;;;;;10.67;7.13;;;;;;;;;;5032906;28;20588;-81
2021/12/17 14:15:13;;;;;;;11.83;6.90;;;;;;;;;;5032939;28;20264;-82
2021/12/17 14:17:44;;;;;;;13.73;7.20;;;;;;;;;;5032812;28;20269;-81
2021/12/17 14:20:14;;;;;;;11.83;6.80;;;;;;;;;;5032926;28;20178;-81
2021/12/17 14:22:42;;;;;;;11.97;6.70;;;;;;;;;;5033110;28;20620;-81
2021/12/17 14:25:27;;;;;;;12.87;7.23;;;;;;;;;;5032869;28;20215;-82
2021/12/17 14:27:53;;;;;;;11.10;6.77;;;;;;;;;;5032689;28;20178;-81
2021/12/17 14:30:33;;;;;;;15.47;8.17;;;;;;;;;;5032543;28;20190;-84
2021/12/17 14:33:00;;;;;;;13.93;7.47;;;;;;;;;;5033262;28;20214;-81
2021/12/17 14:35:39;;;;;;;13.93;7.77;;;;;;;;;;5032679;28;20280;-81
2021/12/17 14:38:05;;;;;;;12.83;7.33;;;;;;;;;;5032526;28;20222;-82
2021/12/17 14:40:39;;;;;;;14.70;8.10;;;;;;;;;;5032211;28;20190;-82
2021/12/17 14:43:18;;;;;;;15.03;8.00;;;;;;;;;;5033031;28;20208;-82
2021/12/17 14:45:50;;;;;;;13.03;7.40;;;;;;;;;;5032391;28;20211;-81
2021/12/17 14:48:26;;;;;;;13.67;7.37;;;;;;;;;;5032348;28;20216;-78
2021/12/17 15:04:48;;;;;;;18.50;9.80;;;;;;;;;;5023584;28;20214;-79
2021/12/17 15:07:14;;;;;;;14.30;7.23;;;;;;;;;;5031697;28;20278;-79
2021/12/17 15:09:44;;;;;;;12.90;6.50;;;;;;;;;;5031512;28;20174;-79
2021/12/17 15:14:52;;;;;;;12.50;6.13;;;;;;;;;;5032392;28;20580;-79
2021/12/17 15:17:20;;;;;;;12.60;6.83;;;;;;;;;;5031362;28;20558;-79
2021/12/17 15:19:46;;;;;;;13.20;6.40;;;;;;;;;;5031059;28;20262;-79
2021/12/17 15:22:12;;;;;;;10.40;5.47;;;;;;;;;;5031081;28;20190;-79
2021/12/17 15:24:38;;;;;;;13.17;5.63;;;;;;;;;;5031083;28;20625;-79
2021/12/17 15:27:04;;;;;;;11.30;6.20;;;;;;;;;;5030972;28;20182;-79
2021/12/17 15:29:31;;;;;;;15.40;7.10;;;;;;;;;;5031156;28;20175;-79
2021/12/17 15:31:57;;;;;;;12.03;6.60;;;;;;;;;;5030906;28;20277;-79
2021/12/17 15:34:23;;;;;;;9.90;5.50;;;;;;;;;;5031196;28;20261;-79
2021/12/17 15:36:49;;;;;;;10.17;5.97;;;;;;;;;;5031154;28;20185;-79
2021/12/17 15:39:15;;;;;;;10.20;5.80;;;;;;;;;;5031134;28;20609;-79
2021/12/17 15:41:42;;;;;;;11.63;6.03;;;;;;;;;;5031194;28;20224;-79
2021/12/17 15:44:09;;;;;;;11.53;5.87;;;;;;;;;;5031207;28;20230;-79
2021/12/17 15:46:36;;;;;;;10.20;5.43;;;;;;;;;;5030951;28;20718;-79
2021/12/17 15:49:03;;;;;;;13.10;6.27;;;;;;;;;;5031067;28;20182;-79
2021/12/17 15:51:29;;;;;;;12.40;6.03;;;;;;;;;;5024239;28;20183;-79
2021/12/17 15:53:55;;;;;;;11.73;6.10;;;;;;;;;;5030576;28;20260;-79
2021/12/17 15:56:21;;;;;;;11.60;6.23;;;;;;;;;;5031007;28;20186;-79
2021/12/17 15:58:48;;;;;;;10.00;5.87;;;;;;;;;;5030766;28;20262;-79
2021/12/17 16:01:14;;;;;;;10.63;5.60;;;;;;;;;;5047408;28;20623;-79
2021/12/17 16:03:42;;;;;;;11.67;6.13;;;;;;;;;;5047351;28;20194;-79
2021/12/17 16:06:09;;;;;;;9.60;5.53;;;;;;;;;;5048748;28;20288;-79
2021/12/17 16:08:39;;;;;;;12.00;5.97;;;;;;;;;;5032646;28;20179;-76
2021/12/17 16:11:38;;;;;;;11.47;5.90;;;;;;;;;;5032426;28;20259;-76
2021/12/17 16:22:02;;;;;;;10.70;6.80;;;;;;;;;;5035456;28;20220;-76
2021/12/17 16:24:28;;;;;;;29.00;17.53;;;;;;;;;;5050552;28;20214;-75
2021/12/17 16:26:56;;;;;;;10.33;6.63;;;;;;;;;;5050607;28;20212;-75
2021/12/17 16:29:22;;;;;;;11.30;5.30;;;;;;;;;;5017091;28;20293;-75
2021/12/17 16:31:49;;;;;;;9.43;5.33;;;;;;;;;;5030684;28;20175;-76
2021/12/17 16:34:16;;;;;;;9.30;5.43;;;;;;;;;;5030562;28;20226;-79
2021/12/17 16:36:42;;;;;;;9.70;5.70;;;;;;;;;;5014625;28;20184;-76
2021/12/17 16:39:13;;;;;;;9.40;4.83;;;;;;;;;;5036351;28;20192;-76
2021/12/17 16:41:39;;;;;;;8.60;5.30;;;;;;;;;;5049795;28;20178;-76
2021/12/17 16:44:09;;;;;;;9.03;5.43;;;;;;;;;;5050294;28;20255;-77
2021/12/17 16:49:06;;;;;;;8.33;5.13;;;;;;;;;;5035088;28;20174;-76
2021/12/17 16:51:32;;;;;;;7.50;5.13;;;;;;;;;;5033921;28;20192;-76
2021/12/17 16:53:59;;;;;;;7.30;4.30;;;;;;;;;;5050205;28;20195;-76
2021/12/17 16:56:25;;;;;;;7.07;4.10;;;;;;;;;;5050137;28;20314;-76
2021/12/17 16:58:51;;;;;;;7.17;4.27;;;;;;;;;;5049845;28;20209;-76
2021/12/17 17:01:17;;;;;;;7.63;4.57;;;;;;;;;;5033666;28;20183;-76
2021/12/17 17:03:44;;;;;;;9.17;4.83;;;;;;;;;;5049816;28;20195;-76
2021/12/17 17:06:11;;;;;;;6.57;4.60;;;;;;;;;;5049985;28;20206;-76
2021/12/17 17:08:37;;;;;;;8.53;5.00;;;;;;;;;;5049870;28;20181;-76
2021/12/17 17:11:04;;;;;;;7.80;5.17;;;;;;;;;;5049658;28;20207;-75
2021/12/17 17:13:31;;;;;;;9.07;5.50;;;;;;;;;;5033731;28;20233;-76
2021/12/17 17:16:00;;;;;;;9.37;5.50;;;;;;;;;;5050038;28;20179;-76
2021/12/17 17:21:30;;;;;;;7.33;4.27;;;;;;;;;;5034794;28;20224;-76
2021/12/17 17:24:22;;;;;;;8.20;4.77;;;;;;;;;;5033426;28;20293;-77
2021/12/17 17:26:49;;;;;;;8.10;5.17;;;;;;;;;;5050527;28;20193;-76
2021/12/17 17:29:16;;;;;;;7.87;4.77;;;;;;;;;;5034119;28;20201;-76
2021/12/17 17:31:42;;;;;;;6.73;4.43;;;;;;;;;;5050709;28;20531;-79
2021/12/17 17:34:09;;;;;;;9.33;5.10;;;;;;;;;;5050668;28;20213;-78
2021/12/17 17:36:36;;;;;;;8.47;5.23;;;;;;;;;;5033696;28;20244;-78
2021/12/17 17:39:03;;;;;;;8.30;5.10;;;;;;;;;;5033862;28;20186;-78
2021/12/17 17:41:29;;;;;;;7.90;5.60;;;;;;;;;;5033348;28;20202;-80
2021/12/17 17:43:56;;;;;;;10.53;6.53;;;;;;;;;;5033145;28;20201;-77
2021/12/17 17:46:23;;;;;;;9.90;6.47;;;;;;;;;;5033408;28;20217;-76
2021/12/17 17:48:50;;;;;;;10.87;7.57;;;;;;;;;;5033610;28;20181;-78
2021/12/17 17:51:17;;;;;;;13.53;8.17;;;;;;;;;;5049774;28;20216;-78
2021/12/17 17:53:43;;;;;;;11.47;8.20;;;;;;;;;;5033402;28;20210;-77
2021/12/17 17:56:09;;;;;;;13.23;8.67;;;;;;;;;;5033406;28;20220;-77
2021/12/17 17:58:35;;;;;;;14.53;13.00;;;;;;;;;;5049412;28;20219;-74
2021/12/17 18:01:01;;;;;;;9.13;7.20;;;;;;;;;;5032632;28;20202;-74
2021/12/17 18:03:27;;;;;;;7.20;5.43;;;;;;;;;;5033120;28;20198;-75